Time;durP1;ratioP1;P1;durP2;ratioP2;P2;SDS_P1;SDS_P2;PMS_P1;PMS_P2;Temp;Humidity;BMP_temperature;BMP_pressure;BME280_temperature;BME280_humidity;BME280_pressure;Samples;Min_cycle;Max_cycle;Signal;HPM_P1;HPM_P2
2023/04/30 00:01:01;;;;;;;14.07;9.20;;;;;;;;;;8288214;28;20132;-71
2023/04/30 00:05:01;;;;;;;12.15;8.40;;;;;;;;;;8289200;28;20517;-71
2023/04/30 00:09:02;;;;;;;11.00;8.65;;;;;;;;;;8293872;28;20194;-71
2023/04/30 00:13:02;;;;;;;13.88;9.38;;;;;;;;;;8289329;28;20029;-72
2023/04/30 00:17:02;;;;;;;11.73;9.48;;;;;;;;;;8287997;28;20029;-72
2023/04/30 00:21:02;;;;;;;11.77;9.50;;;;;;;;;;8288556;28;20021;-71
2023/04/30 00:25:03;;;;;;;10.75;9.18;;;;;;;;;;8292340;28;20056;-71
2023/04/30 00:29:03;;;;;;;12.67;9.23;;;;;;;;;;8285937;28;20033;-71
2023/04/30 00:33:04;;;;;;;11.40;9.00;;;;;;;;;;8261769;28;20758;-71
2023/04/30 00:37:04;;;;;;;11.32;9.45;;;;;;;;;;8256583;28;20787;-71
2023/04/30 00:41:05;;;;;;;12.35;9.23;;;;;;;;;;8256489;28;20026;-71
2023/04/30 00:45:05;;;;;;;10.25;8.15;;;;;;;;;;8261093;28;20026;-71
2023/04/30 00:49:05;;;;;;;11.05;8.80;;;;;;;;;;8258734;28;20026;-72
2023/04/30 00:53:06;;;;;;;10.50;8.40;;;;;;;;;;8261192;28;20030;-71
2023/04/30 00:57:06;;;;;;;11.82;7.80;;;;;;;;;;8254112;28;20057;-71
2023/04/30 01:01:07;;;;;;;12.27;8.20;;;;;;;;;;8262363;28;20038;-71
2023/04/30 01:05:07;;;;;;;10.63;8.63;;;;;;;;;;8252958;28;20114;-71
2023/04/30 01:09:07;;;;;;;11.27;8.82;;;;;;;;;;8251197;28;20030;-71
2023/04/30 01:13:12;;;;;;;11.10;9.35;;;;;;;;;;8251333;28;20761;-71
2023/04/30 01:17:21;;;;;;;14.70;10.45;;;;;;;;;;8250803;28;20069;-72
2023/04/30 01:21:23;;;;;;;12.00;9.25;;;;;;;;;;8260694;28;20049;-71
2023/04/30 01:25:26;;;;;;;11.85;9.02;;;;;;;;;;8261363;28;20018;-72
2023/04/30 01:29:28;;;;;;;12.07;9.67;;;;;;;;;;8252808;28;20640;-72
2023/04/30 01:33:28;;;;;;;14.07;9.63;;;;;;;;;;8263627;28;20037;-72
2023/04/30 01:37:31;;;;;;;10.82;9.63;;;;;;;;;;8252686;28;20071;-72
2023/04/30 01:41:37;;;;;;;13.70;9.93;;;;;;;;;;8253705;28;20034;-72
2023/04/30 01:45:45;;;;;;;12.35;10.00;;;;;;;;;;8252218;28;20176;-72
2023/04/30 01:50:08;;;;;;;12.23;9.98;;;;;;;;;;8252261;28;20028;-71
2023/04/30 01:54:12;;;;;;;9.98;8.98;;;;;;;;;;8254239;28;20486;-72
2023/04/30 01:58:13;;;;;;;10.73;9.30;;;;;;;;;;8252042;28;20018;-72
2023/04/30 02:02:14;;;;;;;12.50;9.77;;;;;;;;;;8260337;28;20120;-72
2023/04/30 02:06:14;;;;;;;14.45;10.90;;;;;;;;;;8254214;28;20022;-72
2023/04/30 02:10:15;;;;;;;14.35;10.38;;;;;;;;;;8257939;28;20057;-72
2023/04/30 02:14:16;;;;;;;12.15;9.50;;;;;;;;;;8251887;28;20505;-72
2023/04/30 02:18:16;;;;;;;11.32;9.90;;;;;;;;;;8252611;28;20045;-72
2023/04/30 02:22:16;;;;;;;13.73;10.65;;;;;;;;;;8251465;28;20099;-72
2023/04/30 02:26:16;;;;;;;13.38;10.90;;;;;;;;;;8251408;28;20057;-72
2023/04/30 02:30:18;;;;;;;14.50;11.52;;;;;;;;;;8252380;28;20095;-72
2023/04/30 02:34:18;;;;;;;13.25;11.27;;;;;;;;;;8285979;28;20769;-72
2023/04/30 02:38:18;;;;;;;17.85;11.82;;;;;;;;;;8283970;28;20048;-72
2023/04/30 02:42:19;;;;;;;17.15;11.60;;;;;;;;;;8285383;28;20563;-72
2023/04/30 02:46:19;;;;;;;15.30;10.85;;;;;;;;;;8272241;28;20033;-72
2023/04/30 02:50:19;;;;;;;13.68;11.30;;;;;;;;;;8261475;28;20069;-72
2023/04/30 02:54:19;;;;;;;15.32;12.40;;;;;;;;;;8254470;28;20060;-72
2023/04/30 02:58:20;;;;;;;16.58;12.07;;;;;;;;;;8258933;28;20426;-71
2023/04/30 03:02:22;;;;;;;14.93;11.48;;;;;;;;;;8261062;28;20034;-72
2023/04/30 03:06:22;;;;;;;14.27;12.68;;;;;;;;;;8266972;28;20637;-72
2023/04/30 03:10:22;;;;;;;15.02;12.68;;;;;;;;;;8251952;28;20038;-72
2023/04/30 03:14:22;;;;;;;15.63;12.27;;;;;;;;;;8258057;28;20686;-71
2023/04/30 03:18:22;;;;;;;17.55;14.15;;;;;;;;;;8255767;28;20030;-72
2023/04/30 03:22:25;;;;;;;16.25;13.65;;;;;;;;;;8252626;28;20088;-72
2023/04/30 03:26:26;;;;;;;18.52;14.27;;;;;;;;;;8258819;28;20076;-72
2023/04/30 03:30:26;;;;;;;16.40;14.32;;;;;;;;;;8254324;28;20038;-71
2023/04/30 03:34:26;;;;;;;17.00;14.00;;;;;;;;;;8258423;28;20026;-72
2023/04/30 03:38:26;;;;;;;20.98;14.30;;;;;;;;;;8261793;28;20064;-71
2023/04/30 03:42:26;;;;;;;19.77;15.45;;;;;;;;;;8261459;28;20033;-71
2023/04/30 03:46:27;;;;;;;20.13;15.32;;;;;;;;;;8257948;28;20112;-71
2023/04/30 03:50:27;;;;;;;19.88;13.95;;;;;;;;;;8261457;28;20087;-72
2023/04/30 03:54:27;;;;;;;17.63;14.50;;;;;;;;;;8261000;28;21063;-72
2023/04/30 03:58:28;;;;;;;19.75;14.75;;;;;;;;;;8256718;28;20442;-71
2023/04/30 04:02:30;;;;;;;18.23;14.88;;;;;;;;;;8256631;28;20030;-71
2023/04/30 04:06:31;;;;;;;18.27;14.60;;;;;;;;;;8258378;28;21063;-71
2023/04/30 04:10:31;;;;;;;20.92;15.50;;;;;;;;;;8260895;28;20493;-71
2023/04/30 04:14:31;;;;;;;22.27;15.32;;;;;;;;;;8261970;28;20037;-72
2023/04/30 04:18:31;;;;;;;19.30;14.50;;;;;;;;;;8255678;28;20038;-72
2023/04/30 04:22:31;;;;;;;21.30;14.60;;;;;;;;;;8256701;28;20028;-71
2023/04/30 04:26:32;;;;;;;21.58;15.93;;;;;;;;;;8256829;28;20036;-72
2023/04/30 04:30:33;;;;;;;17.98;14.85;;;;;;;;;;8253246;28;20869;-72
2023/04/30 04:34:33;;;;;;;24.20;15.88;;;;;;;;;;8257482;28;20095;-72
2023/04/30 04:38:33;;;;;;;18.70;15.48;;;;;;;;;;8264197;28;20080;-72
2023/04/30 04:42:33;;;;;;;16.48;14.18;;;;;;;;;;8256352;28;20030;-72
2023/04/30 04:46:34;;;;;;;17.20;14.63;;;;;;;;;;8257386;28;20042;-73
2023/04/30 04:50:35;;;;;;;19.20;13.97;;;;;;;;;;8256104;28;20794;-71
2023/04/30 04:54:35;;;;;;;17.23;14.18;;;;;;;;;;8252056;28;21098;-71
2023/04/30 04:58:35;;;;;;;19.23;14.43;;;;;;;;;;8255464;28;21109;-72
2023/04/30 05:02:35;;;;;;;20.27;14.68;;;;;;;;;;8259393;28;20104;-72
2023/04/30 05:06:36;;;;;;;18.43;14.63;;;;;;;;;;8253295;28;20029;-72
2023/04/30 05:10:36;;;;;;;19.85;13.93;;;;;;;;;;8258456;28;20280;-74
2023/04/30 05:14:36;;;;;;;17.55;14.20;;;;;;;;;;8253898;28;20525;-73
2023/04/30 05:18:36;;;;;;;17.13;14.05;;;;;;;;;;8254845;28;20033;-74
2023/04/30 05:22:36;;;;;;;16.83;13.00;;;;;;;;;;8254563;28;20022;-73
2023/04/30 05:26:36;;;;;;;17.90;14.25;;;;;;;;;;8269951;28;20684;-73
2023/04/30 05:30:37;;;;;;;18.55;13.57;;;;;;;;;;8258369;28;20041;-73
2023/04/30 05:34:37;;;;;;;17.75;14.18;;;;;;;;;;8255860;28;20079;-73
2023/04/30 05:38:37;;;;;;;17.27;13.80;;;;;;;;;;8255932;28;20415;-73
2023/04/30 05:42:39;;;;;;;20.25;13.10;;;;;;;;;;8252969;28;20034;-73
2023/04/30 05:46:39;;;;;;;15.30;12.88;;;;;;;;;;8251165;28;20029;-74
2023/04/30 05:50:40;;;;;;;17.02;13.55;;;;;;;;;;8252656;28;20032;-73
2023/04/30 05:54:40;;;;;;;17.20;13.40;;;;;;;;;;8257977;28;20255;-73
2023/04/30 05:58:41;;;;;;;16.10;12.82;;;;;;;;;;8252800;28;20687;-73
2023/04/30 06:02:41;;;;;;;18.23;12.75;;;;;;;;;;8253201;28;20030;-74
2023/04/30 06:06:41;;;;;;;19.35;14.02;;;;;;;;;;8260056;28;20030;-74
2023/04/30 06:10:41;;;;;;;18.45;12.65;;;;;;;;;;8253378;28;20491;-73
2023/04/30 06:14:44;;;;;;;17.85;12.35;;;;;;;;;;8252732;28;20092;-74
2023/04/30 06:18:44;;;;;;;18.20;13.25;;;;;;;;;;8263694;28;20897;-73
2023/04/30 06:22:44;;;;;;;16.85;12.65;;;;;;;;;;8254940;28;20607;-73
2023/04/30 06:26:45;;;;;;;14.90;12.13;;;;;;;;;;8262989;28;20037;-73
2023/04/30 06:30:45;;;;;;;16.25;12.43;;;;;;;;;;8254691;28;20265;-74
2023/04/30 06:34:46;;;;;;;16.73;12.10;;;;;;;;;;8254265;28;20346;-74
2023/04/30 06:38:46;;;;;;;14.75;11.93;;;;;;;;;;8260700;28;20025;-74
2023/04/30 06:42:46;;;;;;;14.13;11.02;;;;;;;;;;8264165;28;20022;-74
2023/04/30 06:46:46;;;;;;;13.63;11.02;;;;;;;;;;8253732;28;20038;-74
2023/04/30 06:50:46;;;;;;;14.20;11.18;;;;;;;;;;8254248;28;20033;-74
2023/04/30 06:54:47;;;;;;;12.77;10.63;;;;;;;;;;8258488;28;20029;-74
2023/04/30 06:58:49;;;;;;;16.13;11.20;;;;;;;;;;8264094;28;20084;-73
2023/04/30 07:02:50;;;;;;;13.40;11.00;;;;;;;;;;8262222;28;20042;-74
2023/04/30 07:06:51;;;;;;;13.32;10.48;;;;;;;;;;8274243;28;20034;-73
2023/04/30 07:10:51;;;;;;;12.20;10.13;;;;;;;;;;8270242;28;20076;-74
2023/04/30 07:14:52;;;;;;;12.27;10.07;;;;;;;;;;8264856;28;20296;-73
2023/04/30 07:18:52;;;;;;;11.18;9.57;;;;;;;;;;8262432;28;21003;-74
2023/04/30 07:22:53;;;;;;;10.45;9.15;;;;;;;;;;8264252;28;20549;-73
2023/04/30 07:26:54;;;;;;;10.07;9.07;;;;;;;;;;8267934;28;20026;-73
2023/04/30 07:30:54;;;;;;;10.57;8.57;;;;;;;;;;8260116;28;20034;-72
2023/04/30 07:34:54;;;;;;;11.85;8.95;;;;;;;;;;8260355;28;20088;-73
2023/04/30 07:38:54;;;;;;;11.13;8.65;;;;;;;;;;8257328;28;20801;-73
2023/04/30 07:42:54;;;;;;;10.17;8.47;;;;;;;;;;8263887;28;20041;-73
2023/04/30 07:46:55;;;;;;;11.13;8.27;;;;;;;;;;8260337;28;20152;-73
2023/04/30 07:50:55;;;;;;;11.20;7.95;;;;;;;;;;8258733;28;20041;-73
2023/04/30 07:54:56;;;;;;;10.55;8.38;;;;;;;;;;8258491;28;20932;-73
2023/04/30 07:58:56;;;;;;;10.35;8.00;;;;;;;;;;8267655;28;20083;-73
2023/04/30 08:02:57;;;;;;;9.18;7.22;;;;;;;;;;8260362;28;20038;-73
2023/04/30 08:06:57;;;;;;;10.45;6.82;;;;;;;;;;8258564;28;20037;-73
2023/04/30 08:10:57;;;;;;;6.93;6.22;;;;;;;;;;8266521;28;20044;-73
2023/04/30 08:15:04;;;;;;;7.90;6.53;;;;;;;;;;8262299;28;20148;-73
2023/04/30 08:19:04;;;;;;;6.78;5.90;;;;;;;;;;8256994;28;20042;-73
2023/04/30 08:23:04;;;;;;;8.20;5.93;;;;;;;;;;8257279;28;20513;-73
2023/04/30 08:27:05;;;;;;;6.60;5.63;;;;;;;;;;8262949;28;20137;-74
2023/04/30 08:31:05;;;;;;;6.78;5.45;;;;;;;;;;8252984;28;20054;-73
2023/04/30 08:35:06;;;;;;;8.73;6.05;;;;;;;;;;8254872;28;20758;-74
2023/04/30 08:39:06;;;;;;;10.43;6.07;;;;;;;;;;8277011;28;20132;-76
2023/04/30 08:43:07;;;;;;;7.65;5.70;;;;;;;;;;8250302;28;20077;-74
2023/04/30 08:47:11;;;;;;;6.25;5.65;;;;;;;;;;8259493;28;20038;-74
2023/04/30 08:51:12;;;;;;;6.45;4.57;;;;;;;;;;8253441;28;20030;-74
2023/04/30 08:55:12;;;;;;;6.53;5.10;;;;;;;;;;8252493;28;20745;-74
2023/04/30 08:59:12;;;;;;;5.13;4.60;;;;;;;;;;8251286;28;20026;-74
2023/04/30 09:03:13;;;;;;;5.25;4.38;;;;;;;;;;8256942;28;20038;-74
2023/04/30 09:07:14;;;;;;;5.10;4.60;;;;;;;;;;8260083;28;20104;-74
2023/04/30 09:11:21;;;;;;;5.88;4.47;;;;;;;;;;8249654;28;20102;-74
2023/04/30 09:15:22;;;;;;;5.97;3.92;;;;;;;;;;8253540;28;20578;-74
2023/04/30 09:19:27;;;;;;;6.85;3.95;;;;;;;;;;8252420;28;20441;-74
2023/04/30 09:23:27;;;;;;;5.57;3.40;;;;;;;;;;8251667;28;20026;-74
2023/04/30 09:27:27;;;;;;;5.70;3.38;;;;;;;;;;8253478;28;20266;-74
2023/04/30 09:31:28;;;;;;;4.80;3.45;;;;;;;;;;8254548;28;20038;-74
2023/04/30 09:35:28;;;;;;;4.45;3.30;;;;;;;;;;8254171;28;20038;-74
2023/04/30 09:39:29;;;;;;;3.47;3.05;;;;;;;;;;8251507;28;20952;-74
2023/04/30 09:43:30;;;;;;;4.13;3.00;;;;;;;;;;8255965;28;20026;-74
2023/04/30 09:47:31;;;;;;;2.63;2.40;;;;;;;;;;8257299;28;21039;-74
2023/04/30 09:51:32;;;;;;;4.28;2.45;;;;;;;;;;8253704;28;20022;-75
2023/04/30 09:55:33;;;;;;;3.03;2.20;;;;;;;;;;8252589;28;20117;-74
2023/04/30 09:59:35;;;;;;;8.20;2.35;;;;;;;;;;8250983;28;20041;-75
2023/04/30 10:03:38;;;;;;;2.80;2.25;;;;;;;;;;8251630;28;20034;-75
2023/04/30 10:07:39;;;;;;;3.05;2.55;;;;;;;;;;8253535;28;20377;-74
2023/04/30 10:11:41;;;;;;;3.40;2.30;;;;;;;;;;8258172;28;20039;-74
2023/04/30 10:15:44;;;;;;;3.60;2.20;;;;;;;;;;8257747;28;20049;-74
2023/04/30 10:19:46;;;;;;;6.22;2.20;;;;;;;;;;8291025;28;20021;-74
2023/04/30 10:23:47;;;;;;;4.18;2.35;;;;;;;;;;8279759;28;20381;-74
2023/04/30 10:27:47;;;;;;;2.70;2.00;;;;;;;;;;8282578;28;20149;-74
2023/04/30 10:31:48;;;;;;;2.47;2.28;;;;;;;;;;8276649;28;20120;-74
2023/04/30 10:35:52;;;;;;;3.47;2.22;;;;;;;;;;8281712;28;20044;-74
2023/04/30 10:39:52;;;;;;;2.58;1.83;;;;;;;;;;8287842;28;20037;-74
2023/04/30 10:43:57;;;;;;;3.35;2.00;;;;;;;;;;8295372;28;20706;-74
2023/04/30 10:47:57;;;;;;;2.55;2.20;;;;;;;;;;8286658;28;20045;-74
2023/04/30 10:51:59;;;;;;;5.03;2.50;;;;;;;;;;8284159;28;20044;-74
2023/04/30 10:56:06;;;;;;;3.38;2.28;;;;;;;;;;8288058;28;20028;-74
2023/04/30 11:00:06;;;;;;;3.63;2.40;;;;;;;;;;8280439;28;20830;-75
2023/04/30 11:04:07;;;;;;;3.05;2.00;;;;;;;;;;8292677;28;20734;-74
2023/04/30 11:08:10;;;;;;;3.65;2.03;;;;;;;;;;8280374;28;20021;-75
2023/04/30 11:12:15;;;;;;;1.80;1.70;;;;;;;;;;8282206;28;20040;-74
2023/04/30 11:16:15;;;;;;;2.58;1.92;;;;;;;;;;8282082;28;20072;-74
2023/04/30 11:20:22;;;;;;;2.00;1.90;;;;;;;;;;8280484;28;20889;-74
2023/04/30 11:24:42;;;;;;;2.00;1.85;;;;;;;;;;8282484;28;20114;-74
2023/04/30 11:28:50;;;;;;;2.28;2.08;;;;;;;;;;8278710;28;20037;-74
2023/04/30 11:32:50;;;;;;;2.53;1.60;;;;;;;;;;8272900;28;20034;-74
2023/04/30 11:36:51;;;;;;;1.77;1.45;;;;;;;;;;8277142;28;20116;-74
2023/04/30 11:40:53;;;;;;;2.10;1.63;;;;;;;;;;8272977;28;20131;-74
2023/04/30 11:44:53;;;;;;;1.90;1.17;;;;;;;;;;8282152;28;20017;-74
2023/04/30 11:48:53;;;;;;;1.88;1.40;;;;;;;;;;8287185;28;20095;-74
2023/04/30 11:52:54;;;;;;;2.45;1.60;;;;;;;;;;8286470;28;20033;-74
2023/04/30 11:57:01;;;;;;;1.65;1.35;;;;;;;;;;8293000;28;20068;-74
2023/04/30 12:01:01;;;;;;;3.45;1.27;;;;;;;;;;8286126;28;20103;-74
2023/04/30 12:05:02;;;;;;;5.22;1.48;;;;;;;;;;8294163;28;20107;-74
2023/04/30 12:09:07;;;;;;;1.25;1.10;;;;;;;;;;8291209;28;20760;-74
2023/04/30 12:13:12;;;;;;;1.33;1.20;;;;;;;;;;8292637;28;20036;-74
2023/04/30 12:17:28;;;;;;;3.55;1.10;;;;;;;;;;8287230;28;20046;-74
2023/04/30 12:21:29;;;;;;;1.38;1.20;;;;;;;;;;8287716;28;20494;-74
2023/04/30 12:25:29;;;;;;;1.13;0.90;;;;;;;;;;8298055;28;20386;-74
2023/04/30 12:29:29;;;;;;;1.60;1.20;;;;;;;;;;8295171;28;20079;-74
2023/04/30 12:33:30;;;;;;;2.42;1.38;;;;;;;;;;8287022;28;20060;-74
2023/04/30 12:37:30;;;;;;;1.17;1.08;;;;;;;;;;8281507;28;20079;-74
2023/04/30 12:41:31;;;;;;;1.13;1.10;;;;;;;;;;8291620;28;20075;-73
2023/04/30 12:45:45;;;;;;;1.00;1.00;;;;;;;;;;8286645;28;20034;-74
2023/04/30 12:49:46;;;;;;;2.17;1.05;;;;;;;;;;8286726;28;20077;-74
2023/04/30 12:53:49;;;;;;;1.65;1.40;;;;;;;;;;8296790;28;20401;-74
2023/04/30 12:58:05;;;;;;;1.67;1.08;;;;;;;;;;8294764;28;20069;-74
2023/04/30 13:02:06;;;;;;;2.45;1.23;;;;;;;;;;8285527;28;20034;-74
2023/04/30 13:06:07;;;;;;;1.85;1.00;;;;;;;;;;8285344;28;20013;-74
2023/04/30 13:10:08;;;;;;;1.17;1.08;;;;;;;;;;8283054;28;20053;-74
2023/04/30 13:14:10;;;;;;;1.40;1.10;;;;;;;;;;8284395;28;20155;-74
2023/04/30 13:18:10;;;;;;;2.25;1.30;;;;;;;;;;8283947;28;20037;-74
2023/04/30 13:22:11;;;;;;;2.17;0.95;;;;;;;;;;8284735;28;20025;-74
2023/04/30 13:26:11;;;;;;;1.30;1.20;;;;;;;;;;8283586;28;20072;-74
2023/04/30 13:30:12;;;;;;;2.03;0.90;;;;;;;;;;8281787;28;20021;-74
2023/04/30 13:34:12;;;;;;;2.17;1.20;;;;;;;;;;8285776;28;20033;-74
2023/04/30 13:38:12;;;;;;;1.10;1.00;;;;;;;;;;8292185;28;20033;-74
2023/04/30 13:42:12;;;;;;;1.40;1.10;;;;;;;;;;8290028;28;20135;-74
2023/04/30 13:46:13;;;;;;;1.13;1.00;;;;;;;;;;8284422;28;20140;-74
2023/04/30 13:50:14;;;;;;;1.02;0.93;;;;;;;;;;8278675;28;20032;-74
2023/04/30 13:54:14;;;;;;;1.30;1.20;;;;;;;;;;8283141;28;20036;-74
2023/04/30 13:58:14;;;;;;;1.27;1.10;;;;;;;;;;8283279;28;20284;-74
2023/04/30 14:02:15;;;;;;;1.00;0.90;;;;;;;;;;8283043;28;20084;-75
2023/04/30 14:06:15;;;;;;;2.40;1.10;;;;;;;;;;8280377;28;20148;-74
2023/04/30 14:10:15;;;;;;;1.87;0.90;;;;;;;;;;8280278;28;20266;-74
2023/04/30 14:14:16;;;;;;;0.80;0.80;;;;;;;;;;8283323;28;20399;-74
2023/04/30 14:18:17;;;;;;;0.98;0.90;;;;;;;;;;8278182;28;20037;-75
2023/04/30 14:22:17;;;;;;;0.93;0.90;;;;;;;;;;8285674;28;20032;-74
2023/04/30 14:26:17;;;;;;;0.80;0.80;;;;;;;;;;8277039;28;20055;-75
2023/04/30 14:30:18;;;;;;;1.55;0.90;;;;;;;;;;8275708;28;20310;-75
2023/04/30 14:34:18;;;;;;;1.17;1.08;;;;;;;;;;8284587;28;20617;-75
2023/04/30 14:38:19;;;;;;;1.02;0.93;;;;;;;;;;8282082;28;20100;-74
2023/04/30 14:42:19;;;;;;;0.82;0.80;;;;;;;;;;8282957;28;20033;-74
2023/04/30 14:46:19;;;;;;;1.10;0.87;;;;;;;;;;8280145;28;20048;-75
2023/04/30 14:50:20;;;;;;;0.70;0.70;;;;;;;;;;8273741;28;20036;-75
2023/04/30 14:54:20;;;;;;;1.00;0.90;;;;;;;;;;8280689;28;20025;-74
2023/04/30 14:58:21;;;;;;;0.80;0.80;;;;;;;;;;8278662;28;20021;-74
2023/04/30 15:02:21;;;;;;;0.80;0.80;;;;;;;;;;8279940;28;20065;-74
2023/04/30 15:06:21;;;;;;;1.50;0.80;;;;;;;;;;8281248;28;20120;-75
2023/04/30 15:10:21;;;;;;;1.08;0.80;;;;;;;;;;8279085;28;21048;-74
2023/04/30 15:14:22;;;;;;;1.88;0.93;;;;;;;;;;8278257;28;20037;-74
2023/04/30 15:18:22;;;;;;;1.50;0.73;;;;;;;;;;8277823;28;20037;-74
2023/04/30 15:22:22;;;;;;;1.00;0.90;;;;;;;;;;8285465;28;20022;-74
2023/04/30 15:26:24;;;;;;;1.55;1.20;;;;;;;;;;8284842;28;20268;-74
2023/04/30 15:30:24;;;;;;;1.50;0.90;;;;;;;;;;8288924;28;20030;-74
2023/04/30 15:34:25;;;;;;;1.03;0.87;;;;;;;;;;8290420;28;20017;-74
2023/04/30 15:38:26;;;;;;;0.90;0.90;;;;;;;;;;8286024;28;20072;-74
2023/04/30 15:42:26;;;;;;;1.40;1.00;;;;;;;;;;8296989;28;20017;-75
2023/04/30 15:46:26;;;;;;;1.40;0.90;;;;;;;;;;8292203;28;20132;-74
2023/04/30 15:50:27;;;;;;;1.08;0.80;;;;;;;;;;8285549;28;20017;-74
2023/04/30 15:54:28;;;;;;;0.88;0.80;;;;;;;;;;8278704;28;20025;-74
2023/04/30 15:58:28;;;;;;;1.27;0.88;;;;;;;;;;8286674;28;20033;-74
2023/04/30 16:02:29;;;;;;;1.00;0.90;;;;;;;;;;8285950;28;20041;-74
2023/04/30 16:06:30;;;;;;;0.80;0.80;;;;;;;;;;8279629;28;20022;-74
2023/04/30 16:10:31;;;;;;;1.02;0.70;;;;;;;;;;8286817;28;20026;-73
2023/04/30 16:14:31;;;;;;;0.80;0.80;;;;;;;;;;8284722;28;20360;-74
2023/04/30 16:18:31;;;;;;;0.88;0.88;;;;;;;;;;8284006;28;20735;-74
2023/04/30 16:22:32;;;;;;;1.60;0.70;;;;;;;;;;8287538;28;20018;-74
2023/04/30 16:26:36;;;;;;;0.98;0.75;;;;;;;;;;8282611;28;20693;-74
2023/04/30 16:30:36;;;;;;;1.05;0.88;;;;;;;;;;8284592;28;20034;-74
2023/04/30 16:34:36;;;;;;;0.75;0.73;;;;;;;;;;8283250;28;20028;-74
2023/04/30 16:38:37;;;;;;;1.10;0.80;;;;;;;;;;8284648;28;20032;-73
2023/04/30 16:42:37;;;;;;;1.33;0.80;;;;;;;;;;8285023;28;20091;-74
2023/04/30 16:46:37;;;;;;;2.17;0.88;;;;;;;;;;8287990;28;20041;-73
2023/04/30 16:50:37;;;;;;;1.95;0.88;;;;;;;;;;8280009;28;20037;-73
2023/04/30 16:54:38;;;;;;;0.60;0.60;;;;;;;;;;8287503;28;20036;-74
2023/04/30 16:58:38;;;;;;;1.58;1.10;;;;;;;;;;8278890;28;20017;-74
2023/04/30 17:02:39;;;;;;;0.82;0.80;;;;;;;;;;8280507;28;20036;-73
2023/04/30 17:06:40;;;;;;;0.75;0.75;;;;;;;;;;8294533;28;20108;-74
2023/04/30 17:10:41;;;;;;;1.42;0.90;;;;;;;;;;8284174;28;20115;-74
2023/04/30 17:14:41;;;;;;;1.23;0.70;;;;;;;;;;8282059;28;20107;-74
2023/04/30 17:18:42;;;;;;;0.63;0.63;;;;;;;;;;8284108;28;20038;-74
2023/04/30 17:22:42;;;;;;;0.70;0.70;;;;;;;;;;8282399;28;20577;-74
2023/04/30 17:26:42;;;;;;;1.33;0.70;;;;;;;;;;8282859;28;20738;-74
2023/04/30 17:30:43;;;;;;;0.95;0.80;;;;;;;;;;8294093;28;20049;-73
2023/04/30 17:34:43;;;;;;;0.93;0.70;;;;;;;;;;8293905;28;20039;-74
2023/04/30 17:38:43;;;;;;;0.80;0.70;;;;;;;;;;8281249;28;20029;-74
2023/04/30 17:42:44;;;;;;;0.82;0.80;;;;;;;;;;8278960;28;20040;-74
2023/04/30 17:46:44;;;;;;;1.10;0.70;;;;;;;;;;8281782;28;20133;-73
2023/04/30 17:50:45;;;;;;;1.08;0.70;;;;;;;;;;8292721;28;20753;-74
2023/04/30 17:54:46;;;;;;;0.68;0.63;;;;;;;;;;8287298;28;20052;-73
2023/04/30 17:58:46;;;;;;;0.80;0.63;;;;;;;;;;8281543;28;20063;-73
2023/04/30 18:02:46;;;;;;;3.25;0.80;;;;;;;;;;8289899;28;20033;-74
2023/04/30 18:06:47;;;;;;;0.70;0.70;;;;;;;;;;8286895;28;20383;-73
2023/04/30 18:10:47;;;;;;;2.75;0.80;;;;;;;;;;8282847;28;20022;-73
2023/04/30 18:14:47;;;;;;;0.80;0.80;;;;;;;;;;8279598;28;20675;-73
2023/04/30 18:18:48;;;;;;;0.88;0.60;;;;;;;;;;8267950;28;20075;-73
2023/04/30 18:22:48;;;;;;;0.85;0.70;;;;;;;;;;8290295;28;20041;-73
2023/04/30 18:26:48;;;;;;;0.70;0.70;;;;;;;;;;8291052;28;20080;-73
2023/04/30 18:30:48;;;;;;;1.50;0.80;;;;;;;;;;8282677;28;20090;-73
2023/04/30 18:34:49;;;;;;;0.70;0.70;;;;;;;;;;8282335;28;20075;-73
2023/04/30 18:38:50;;;;;;;0.95;0.80;;;;;;;;;;8283304;28;20765;-73
2023/04/30 18:42:50;;;;;;;1.73;1.20;;;;;;;;;;8281629;28;20030;-73
2023/04/30 18:46:51;;;;;;;1.50;1.35;;;;;;;;;;8289638;28;20049;-74
2023/04/30 18:50:51;;;;;;;3.25;1.20;;;;;;;;;;8281241;28;20017;-73
2023/04/30 18:54:52;;;;;;;1.67;1.58;;;;;;;;;;8279431;28;21040;-73
2023/04/30 18:58:52;;;;;;;2.60;1.90;;;;;;;;;;8279662;28;20113;-73
2023/04/30 19:02:52;;;;;;;3.83;1.98;;;;;;;;;;8287394;28;20037;-73
2023/04/30 19:06:54;;;;;;;3.22;2.10;;;;;;;;;;8288441;28;20025;-73
2023/04/30 19:10:55;;;;;;;4.22;2.28;;;;;;;;;;8272889;28;20379;-73
2023/04/30 19:14:56;;;;;;;4.03;2.30;;;;;;;;;;8275966;28;20032;-73
2023/04/30 19:18:56;;;;;;;4.47;1.90;;;;;;;;;;8279816;28;20046;-73
2023/04/30 19:22:56;;;;;;;3.45;2.25;;;;;;;;;;8283385;28;20025;-73
2023/04/30 19:26:56;;;;;;;2.75;2.10;;;;;;;;;;8294649;28;20027;-73
2023/04/30 19:30:57;;;;;;;4.17;1.83;;;;;;;;;;8277756;28;20041;-73
2023/04/30 19:34:57;;;;;;;1.98;1.80;;;;;;;;;;8280858;28;20460;-72
2023/04/30 19:38:58;;;;;;;4.35;1.90;;;;;;;;;;8279786;28;20107;-72
2023/04/30 19:42:58;;;;;;;2.85;1.55;;;;;;;;;;8285775;28;20030;-73
2023/04/30 19:46:58;;;;;;;1.52;1.42;;;;;;;;;;8281342;28;20124;-72
2023/04/30 19:51:01;;;;;;;2.67;2.00;;;;;;;;;;8277032;28;20048;-72
2023/04/30 19:55:02;;;;;;;2.30;2.00;;;;;;;;;;8279264;28;20399;-72
2023/04/30 19:59:02;;;;;;;5.30;2.75;;;;;;;;;;8274106;28;20327;-72
2023/04/30 20:03:04;;;;;;;3.67;2.80;;;;;;;;;;8280549;28;20129;-72
2023/04/30 20:07:04;;;;;;;6.25;2.95;;;;;;;;;;8296149;28;20029;-72
2023/04/30 20:11:04;;;;;;;4.47;2.87;;;;;;;;;;8284842;28;20136;-71
2023/04/30 20:15:04;;;;;;;3.40;2.63;;;;;;;;;;8284515;28;20371;-71
2023/04/30 20:19:06;;;;;;;3.00;2.40;;;;;;;;;;8284815;28;21022;-72
2023/04/30 20:23:12;;;;;;;1.95;1.40;;;;;;;;;;8291118;28;20640;-71
2023/04/30 20:27:13;;;;;;;1.65;1.20;;;;;;;;;;8285950;28;20966;-71
2023/04/30 20:31:13;;;;;;;1.40;1.30;;;;;;;;;;8289185;28;20045;-72
2023/04/30 20:35:14;;;;;;;1.98;1.40;;;;;;;;;;8286505;28;20029;-71
2023/04/30 20:39:14;;;;;;;3.60;1.27;;;;;;;;;;8286454;28;20035;-72
2023/04/30 20:43:14;;;;;;;1.40;1.30;;;;;;;;;;8286041;28;20038;-72
2023/04/30 20:47:15;;;;;;;2.85;1.25;;;;;;;;;;8288308;28;20037;-72
2023/04/30 20:51:15;;;;;;;1.88;1.40;;;;;;;;;;8286607;28;20056;-72
2023/04/30 20:55:15;;;;;;;1.90;1.20;;;;;;;;;;8290076;28;20111;-72
2023/04/30 20:59:15;;;;;;;1.52;1.20;;;;;;;;;;8283262;28;20029;-72
2023/04/30 21:03:15;;;;;;;2.45;1.60;;;;;;;;;;8280492;28;20050;-72
2023/04/30 21:07:16;;;;;;;2.45;1.80;;;;;;;;;;8292381;28;20870;-71
2023/04/30 21:11:17;;;;;;;1.50;1.38;;;;;;;;;;8283470;28;20446;-71
2023/04/30 21:15:18;;;;;;;3.80;1.98;;;;;;;;;;8286131;28;20033;-72
2023/04/30 21:19:18;;;;;;;2.10;1.50;;;;;;;;;;8293925;28;20029;-72
2023/04/30 21:23:18;;;;;;;2.65;1.83;;;;;;;;;;8287492;28;20136;-71
2023/04/30 21:27:19;;;;;;;1.83;1.70;;;;;;;;;;8287374;28;20025;-72
2023/04/30 21:31:19;;;;;;;1.60;1.33;;;;;;;;;;8285224;28;20045;-72
2023/04/30 21:35:19;;;;;;;1.50;1.40;;;;;;;;;;8287229;28;20037;-72
2023/04/30 21:39:20;;;;;;;2.22;1.60;;;;;;;;;;8285848;28;20025;-72
2023/04/30 21:43:20;;;;;;;4.70;1.73;;;;;;;;;;8281709;28;20048;-72
2023/04/30 21:47:21;;;;;;;1.98;1.40;;;;;;;;;;8282330;28;20779;-71
2023/04/30 21:51:21;;;;;;;2.03;1.50;;;;;;;;;;8288970;28;20072;-71
2023/04/30 21:55:21;;;;;;;1.20;1.10;;;;;;;;;;8284355;28;20037;-71
2023/04/30 21:59:22;;;;;;;1.60;1.50;;;;;;;;;;8285732;28;20017;-71
2023/04/30 22:03:22;;;;;;;2.17;1.98;;;;;;;;;;8281119;28;20025;-72
2023/04/30 22:07:22;;;;;;;3.77;2.10;;;;;;;;;;8284377;28;20900;-72
2023/04/30 22:11:24;;;;;;;4.10;1.92;;;;;;;;;;8281181;28;20087;-72
2023/04/30 22:15:24;;;;;;;2.33;1.60;;;;;;;;;;8281430;28;20826;-72
2023/04/30 22:19:24;;;;;;;2.00;1.70;;;;;;;;;;8284172;28;20017;-72
2023/04/30 22:23:25;;;;;;;2.00;1.80;;;;;;;;;;8287735;28;20691;-71
2023/04/30 22:27:25;;;;;;;2.78;2.00;;;;;;;;;;8285116;28;20018;-72
2023/04/30 22:31:25;;;;;;;3.25;2.50;;;;;;;;;;8283389;28;20037;-72
2023/04/30 22:35:26;;;;;;;3.50;2.30;;;;;;;;;;8284408;28;20038;-72
2023/04/30 22:39:26;;;;;;;2.58;1.80;;;;;;;;;;8292241;28;20030;-71
2023/04/30 22:43:28;;;;;;;2.13;1.58;;;;;;;;;;8287472;28;20114;-72
2023/04/30 22:47:29;;;;;;;1.60;1.50;;;;;;;;;;8283936;28;20037;-72
2023/04/30 22:51:30;;;;;;;1.75;1.60;;;;;;;;;;8291329;28;20075;-72
2023/04/30 22:55:30;;;;;;;4.78;2.00;;;;;;;;;;8283609;28;20042;-72
2023/04/30 22:59:31;;;;;;;4.65;1.90;;;;;;;;;;8282646;28;20418;-72
2023/04/30 23:03:31;;;;;;;2.15;1.95;;;;;;;;;;8286003;28;20037;-72
2023/04/30 23:07:31;;;;;;;1.48;1.38;;;;;;;;;;8288158;28;20034;-72
2023/04/30 23:11:32;;;;;;;2.05;1.65;;;;;;;;;;8284874;28;20022;-72
2023/04/30 23:15:32;;;;;;;2.50;1.38;;;;;;;;;;8286528;28;20113;-72
2023/04/30 23:19:32;;;;;;;2.83;1.52;;;;;;;;;;8281465;28;20030;-72
2023/04/30 23:23:33;;;;;;;2.13;1.58;;;;;;;;;;8288027;28;20430;-71
2023/04/30 23:27:33;;;;;;;1.87;1.47;;;;;;;;;;8282010;28;20967;-72
2023/04/30 23:31:33;;;;;;;4.38;1.50;;;;;;;;;;8281103;28;20272;-72
2023/04/30 23:35:34;;;;;;;1.48;1.38;;;;;;;;;;8291834;28;20029;-72
2023/04/30 23:39:34;;;;;;;1.40;1.30;;;;;;;;;;8285687;28;20139;-72
2023/04/30 23:43:34;;;;;;;2.07;1.43;;;;;;;;;;8287454;28;20029;-72
2023/04/30 23:47:35;;;;;;;1.70;1.50;;;;;;;;;;8288712;28;20152;-71
2023/04/30 23:51:35;;;;;;;1.92;1.83;;;;;;;;;;8288531;28;20288;-72